Time;durP1;ratioP1;P1;durP2;ratioP2;P2;SDS_P1;SDS_P2;PMS_P1;PMS_P2;Temp;Humidity;BMP_temperature;BMP_pressure;BME280_temperature;BME280_humidity;BME280_pressure;Samples;Min_cycle;Max_cycle;Signal;HPM_P1;HPM_P2
2022/08/27 00:07:43;;;;;;;14.77;12.23;;;;;;;;;;16904174;28;20227;-87
2022/08/27 00:16:05;;;;;;;13.30;11.77;;;;;;;;;;16905972;28;20177;-87
2022/08/27 00:24:26;;;;;;;13.63;11.73;;;;;;;;;;16905495;28;20293;-86
2022/08/27 00:32:46;;;;;;;13.23;11.83;;;;;;;;;;16905125;28;20525;-86
2022/08/27 00:41:08;;;;;;;14.50;12.50;;;;;;;;;;16905756;29;20219;-86
2022/08/27 00:49:33;;;;;;;13.67;11.93;;;;;;;;;;16905549;29;20181;-86
2022/08/27 00:58:13;;;;;;;14.80;11.63;;;;;;;;;;16906207;28;20244;-86
2022/08/27 01:06:35;;;;;;;12.73;11.30;;;;;;;;;;16905833;29;20205;-86
2022/08/27 01:14:56;;;;;;;14.37;11.43;;;;;;;;;;16899271;28;20200;-86
2022/08/27 01:23:31;;;;;;;13.00;11.70;;;;;;;;;;16892558;29;20538;-86
2022/08/27 01:31:52;;;;;;;14.60;11.67;;;;;;;;;;16893920;29;20217;-86
2022/08/27 01:40:12;;;;;;;13.23;11.60;;;;;;;;;;16891880;29;20209;-86
2022/08/27 01:48:33;;;;;;;14.13;11.73;;;;;;;;;;16891377;29;20229;-86
2022/08/27 01:56:53;;;;;;;12.33;11.03;;;;;;;;;;16892695;28;20264;-87
2022/08/27 02:05:13;;;;;;;15.50;13.00;;;;;;;;;;16893602;28;20212;-87
2022/08/27 02:13:34;;;;;;;15.07;12.17;;;;;;;;;;16892093;29;20176;-87
2022/08/27 02:21:58;;;;;;;15.07;12.97;;;;;;;;;;16889499;28;20213;-87
2022/08/27 02:30:22;;;;;;;16.20;12.87;;;;;;;;;;16888008;28;20217;-87
2022/08/27 02:38:43;;;;;;;15.57;13.07;;;;;;;;;;16889781;29;20640;-87
2022/08/27 02:47:04;;;;;;;14.80;12.50;;;;;;;;;;16889798;28;20197;-87
2022/08/27 02:55:24;;;;;;;13.83;12.03;;;;;;;;;;16888961;28;20252;-87
2022/08/27 03:03:44;;;;;;;14.33;12.37;;;;;;;;;;16887581;28;20173;-87
2022/08/27 03:12:05;;;;;;;14.07;12.17;;;;;;;;;;16888139;29;20208;-86
2022/08/27 03:20:25;;;;;;;14.80;12.03;;;;;;;;;;16886818;29;20540;-86
2022/08/27 03:28:46;;;;;;;16.53;13.10;;;;;;;;;;16888339;29;20231;-85
2022/08/27 03:37:07;;;;;;;15.53;13.17;;;;;;;;;;16888660;29;20564;-86
2022/08/27 03:45:27;;;;;;;16.27;12.70;;;;;;;;;;16888017;29;20243;-86
2022/08/27 03:53:47;;;;;;;16.67;12.43;;;;;;;;;;16885703;28;20211;-86
2022/08/27 04:02:08;;;;;;;20.60;13.40;;;;;;;;;;16886326;29;20556;-86
2022/08/27 04:10:28;;;;;;;18.47;12.97;;;;;;;;;;16885362;28;20665;-86
2022/08/27 04:18:48;;;;;;;15.37;13.63;;;;;;;;;;16884389;29;20181;-86
2022/08/27 04:27:09;;;;;;;22.80;12.63;;;;;;;;;;16885941;28;20587;-86
2022/08/27 04:35:30;;;;;;;14.25;12.75;;;;;;;;;;16884376;29;20219;-86
2022/08/27 04:43:55;;;;;;;15.60;12.80;;;;;;;;;;16883361;28;20630;-87
2022/08/27 04:52:15;;;;;;;15.95;14.35;;;;;;;;;;16889209;29;20209;-87
2022/08/27 05:00:47;;;;;;;18.23;14.10;;;;;;;;;;16895675;28;20724;-87
2022/08/27 05:09:08;;;;;;;16.98;15.18;;;;;;;;;;16894312;29;20201;-88
2022/08/27 05:17:30;;;;;;;14.95;13.55;;;;;;;;;;16894933;29;20185;-88
2022/08/27 05:25:52;;;;;;;38.92;35.88;;;;;;;;;;16894486;28;20193;-88
2022/08/27 05:34:13;;;;;;;25.63;23.45;;;;;;;;;;16894030;29;20212;-88
2022/08/27 05:42:33;;;;;;;25.05;22.75;;;;;;;;;;16893594;29;20657;-88
2022/08/27 05:50:53;;;;;;;15.52;14.13;;;;;;;;;;16892314;28;20284;-88
2022/08/27 06:07:52;;;;;;;16.67;15.05;;;;;;;;;;16891448;29;20173;-87
2022/08/27 06:16:15;;;;;;;16.30;14.60;;;;;;;;;;16890394;28;20235;-85
2022/08/27 06:24:35;;;;;;;14.55;13.23;;;;;;;;;;16892348;28;20177;-85
2022/08/27 06:32:55;;;;;;;18.25;16.55;;;;;;;;;;16890471;28;20209;-84
2022/08/27 06:41:18;;;;;;;51.97;48.55;;;;;;;;;;16888633;29;20201;-85
2022/08/27 06:49:39;;;;;;;106.95;100.13;;;;;;;;;;16888115;29;20729;-84
2022/08/27 06:58:00;;;;;;;126.85;118.20;;;;;;;;;;16888416;28;20233;-84
2022/08/27 07:06:22;;;;;;;97.78;91.53;;;;;;;;;;16887579;29;20197;-85
2022/08/27 07:14:43;;;;;;;85.82;80.47;;;;;;;;;;16887437;29;20205;-84
2022/08/27 07:23:03;;;;;;;111.40;103.90;;;;;;;;;;16887778;29;20176;-84
2022/08/27 07:31:23;;;;;;;124.43;116.07;;;;;;;;;;16886077;29;20308;-85
2022/08/27 07:39:43;;;;;;;209.30;192.38;;;;;;;;;;16887032;29;20220;-83
2022/08/27 07:48:04;;;;;;;205.10;189.32;;;;;;;;;;16885306;29;20672;-84
2022/08/27 07:56:24;;;;;;;84.20;78.53;;;;;;;;;;16886390;28;20306;-84
2022/08/27 08:04:45;;;;;;;108.28;101.28;;;;;;;;;;16886569;28;20177;-84
2022/08/27 08:13:05;;;;;;;112.82;105.60;;;;;;;;;;16883859;29;20209;-84
2022/08/27 08:21:26;;;;;;;86.97;81.47;;;;;;;;;;16884930;29;20177;-84
2022/08/27 08:29:47;;;;;;;104.50;97.83;;;;;;;;;;16894431;29;20284;-86
2022/08/27 08:38:07;;;;;;;179.50;166.30;;;;;;;;;;16896761;28;20540;-86
2022/08/27 08:47:03;;;;;;;323.73;295.67;;;;;;;;;;16893882;29;20204;-86
2022/08/27 08:55:29;;;;;;;12.48;11.13;;;;;;;;;;16914815;28;20228;-86
2022/08/27 09:04:01;;;;;;;12.48;11.18;;;;;;;;;;16889548;29;20189;-85
2022/08/27 09:12:25;;;;;;;12.80;11.10;;;;;;;;;;16893274;29;20750;-86
2022/08/27 09:20:48;;;;;;;10.93;9.60;;;;;;;;;;16893312;29;20298;-86
2022/08/27 09:29:19;;;;;;;16.27;10.32;;;;;;;;;;16893580;28;20730;-85
2022/08/27 09:37:44;;;;;;;12.07;10.25;;;;;;;;;;16892190;29;20173;-86
2022/08/27 09:46:13;;;;;;;12.07;9.88;;;;;;;;;;16892960;29;20656;-86
2022/08/27 09:54:41;;;;;;;13.35;9.60;;;;;;;;;;16890944;28;20275;-85
2022/08/27 10:03:02;;;;;;;12.80;9.73;;;;;;;;;;16891674;29;20181;-86
2022/08/27 10:11:27;;;;;;;12.38;9.85;;;;;;;;;;16890271;28;20200;-85
2022/08/27 10:20:02;;;;;;;11.00;9.90;;;;;;;;;;16891174;29;20169;-86
2022/08/27 10:28:25;;;;;;;14.63;8.68;;;;;;;;;;16890611;29;20565;-85
2022/08/27 10:36:56;;;;;;;11.90;8.57;;;;;;;;;;16889131;29;20676;-85
2022/08/27 10:45:27;;;;;;;10.80;8.52;;;;;;;;;;16887585;29;20212;-86
2022/08/27 10:53:47;;;;;;;10.98;7.50;;;;;;;;;;16888325;28;20190;-85
2022/08/27 11:02:07;;;;;;;9.82;8.07;;;;;;;;;;16888459;29;20532;-85
2022/08/27 11:10:29;;;;;;;13.45;7.63;;;;;;;;;;16887904;29;20209;-85
2022/08/27 11:18:51;;;;;;;10.95;7.68;;;;;;;;;;16887971;29;20664;-85
2022/08/27 11:27:14;;;;;;;14.07;7.70;;;;;;;;;;16886686;28;20200;-85
2022/08/27 11:35:41;;;;;;;8.70;6.72;;;;;;;;;;16886303;29;20205;-85
2022/08/27 11:44:02;;;;;;;12.52;7.18;;;;;;;;;;16885728;29;20254;-85
2022/08/27 11:52:27;;;;;;;16.42;7.40;;;;;;;;;;16888306;29;20209;-85
2022/08/27 12:00:47;;;;;;;12.77;7.72;;;;;;;;;;16886033;29;20228;-86
2022/08/27 12:09:16;;;;;;;8.48;7.18;;;;;;;;;;16886181;29;20201;-85
2022/08/27 12:17:44;;;;;;;13.68;7.28;;;;;;;;;;16885392;28;20181;-86
2022/08/27 12:26:14;;;;;;;14.63;8.00;;;;;;;;;;16885131;29;20164;-86
2022/08/27 12:34:42;;;;;;;11.80;7.40;;;;;;;;;;16885649;29;20661;-86
2022/08/27 12:43:13;;;;;;;13.27;7.35;;;;;;;;;;16883901;29;20204;-87
2022/08/27 12:51:36;;;;;;;10.00;7.07;;;;;;;;;;16882904;28;20205;-86
2022/08/27 13:00:00;;;;;;;10.15;6.82;;;;;;;;;;16882158;28;20264;-86
2022/08/27 13:08:22;;;;;;;10.50;7.03;;;;;;;;;;16882308;29;20187;-85
2022/08/27 13:16:54;;;;;;;12.32;6.90;;;;;;;;;;16892724;29;20201;-86
2022/08/27 13:25:22;;;;;;;8.00;6.45;;;;;;;;;;16894255;28;20185;-86
2022/08/27 13:33:43;;;;;;;9.70;6.97;;;;;;;;;;16887249;28;20212;-86
2022/08/27 13:42:04;;;;;;;17.42;8.18;;;;;;;;;;16891014;29;20601;-86
2022/08/27 13:50:26;;;;;;;11.07;8.35;;;;;;;;;;16890848;28;20563;-86
2022/08/27 13:58:47;;;;;;;14.88;8.70;;;;;;;;;;16890343;28;20580;-86
2022/08/27 14:07:14;;;;;;;13.00;8.18;;;;;;;;;;16889385;29;20260;-85
2022/08/27 14:15:34;;;;;;;13.10;8.38;;;;;;;;;;16888384;29;20263;-86
2022/08/27 14:23:55;;;;;;;12.95;8.23;;;;;;;;;;16886636;29;20189;-86
2022/08/27 14:32:17;;;;;;;12.35;8.30;;;;;;;;;;16888596;29;20213;-86
2022/08/27 14:40:38;;;;;;;11.13;9.93;;;;;;;;;;16889802;29;20617;-86
2022/08/27 14:48:59;;;;;;;16.25;10.90;;;;;;;;;;16888177;28;20193;-86
2022/08/27 14:57:21;;;;;;;14.20;10.00;;;;;;;;;;16887773;28;20276;-86
2022/08/27 15:05:41;;;;;;;14.00;8.75;;;;;;;;;;16887804;29;20182;-86
2022/08/27 15:14:03;;;;;;;15.23;8.73;;;;;;;;;;16886467;29;20284;-86
2022/08/27 15:22:25;;;;;;;14.25;9.63;;;;;;;;;;16887242;28;20440;-87
2022/08/27 15:30:46;;;;;;;12.23;9.38;;;;;;;;;;16887426;29;20675;-86
2022/08/27 15:39:06;;;;;;;15.43;9.13;;;;;;;;;;16885536;28;20173;-86
2022/08/27 15:47:26;;;;;;;11.48;8.30;;;;;;;;;;16886510;29;20197;-86
2022/08/27 15:55:47;;;;;;;10.40;8.15;;;;;;;;;;16885743;28;20237;-87
2022/08/27 16:04:09;;;;;;;9.95;8.23;;;;;;;;;;16885086;28;20569;-87
2022/08/27 16:12:29;;;;;;;12.18;8.63;;;;;;;;;;16884357;28;20220;-87
2022/08/27 16:20:49;;;;;;;14.38;9.63;;;;;;;;;;16885103;28;20185;-88
2022/08/27 16:29:09;;;;;;;14.20;8.85;;;;;;;;;;16883807;28;20178;-87
2022/08/27 16:37:30;;;;;;;15.05;8.60;;;;;;;;;;16883326;29;20521;-87
2022/08/27 16:45:51;;;;;;;15.93;10.02;;;;;;;;;;16885161;29;20205;-87
2022/08/27 16:54:14;;;;;;;14.27;10.25;;;;;;;;;;16894948;28;20324;-87
2022/08/27 17:02:36;;;;;;;19.23;10.98;;;;;;;;;;16894333;29;20253;-87
2022/08/27 17:10:57;;;;;;;23.95;11.77;;;;;;;;;;16893207;29;20216;-88
2022/08/27 17:19:18;;;;;;;20.48;13.55;;;;;;;;;;16892725;29;20524;-87
2022/08/27 17:27:38;;;;;;;30.13;26.50;;;;;;;;;;16892049;28;20532;-87
2022/08/27 17:35:58;;;;;;;41.63;24.80;;;;;;;;;;16891809;28;20457;-86
2022/08/27 17:44:21;;;;;;;27.55;18.13;;;;;;;;;;16891476;29;20289;-87
2022/08/27 17:52:41;;;;;;;25.00;19.00;;;;;;;;;;16892346;28;20197;-87
2022/08/27 18:01:02;;;;;;;23.23;13.93;;;;;;;;;;16891815;28;20612;-86
2022/08/27 18:09:22;;;;;;;24.67;17.48;;;;;;;;;;16892281;29;20588;-88
2022/08/27 18:17:42;;;;;;;32.35;28.25;;;;;;;;;;16891211;28;20633;-88
2022/08/27 18:26:03;;;;;;;21.55;13.73;;;;;;;;;;16889668;28;20184;-88
2022/08/27 18:34:23;;;;;;;25.83;18.48;;;;;;;;;;16890117;29;20228;-87
2022/08/27 18:42:44;;;;;;;21.60;12.25;;;;;;;;;;16889704;28;20193;-87
2022/08/27 18:51:06;;;;;;;15.68;9.63;;;;;;;;;;16889256;28;20217;-88
2022/08/27 18:59:26;;;;;;;14.93;9.10;;;;;;;;;;16888943;28;20229;-87
2022/08/27 19:07:47;;;;;;;14.10;8.73;;;;;;;;;;16888651;28;20188;-88
2022/08/27 19:16:14;;;;;;;11.13;8.48;;;;;;;;;;16888082;28;20233;-88
2022/08/27 19:24:34;;;;;;;12.30;6.88;;;;;;;;;;16887165;28;20180;-88
2022/08/27 19:32:55;;;;;;;8.02;6.60;;;;;;;;;;16887232;29;20565;-88
2022/08/27 19:41:16;;;;;;;11.88;7.10;;;;;;;;;;16886892;29;20176;-88
2022/08/27 19:49:38;;;;;;;8.20;6.38;;;;;;;;;;16887532;28;20247;-87
2022/08/27 19:57:59;;;;;;;12.05;6.22;;;;;;;;;;16884561;28;20244;-87
2022/08/27 20:06:20;;;;;;;8.82;6.22;;;;;;;;;;16884937;29;20181;-87
2022/08/27 20:14:40;;;;;;;10.05;6.03;;;;;;;;;;16884428;29;20205;-86
2022/08/27 20:23:04;;;;;;;11.15;5.80;;;;;;;;;;16891639;28;20513;-87
2022/08/27 20:31:25;;;;;;;11.10;6.10;;;;;;;;;;16897052;28;20199;-87
2022/08/27 20:39:47;;;;;;;9.55;6.20;;;;;;;;;;16894969;29;20180;-87
2022/08/27 20:48:08;;;;;;;14.40;6.45;;;;;;;;;;16894661;29;20287;-87
2022/08/27 20:56:29;;;;;;;7.97;6.38;;;;;;;;;;16894958;28;20590;-86
2022/08/27 21:04:49;;;;;;;11.27;6.47;;;;;;;;;;16893768;29;20220;-87
2022/08/27 21:13:09;;;;;;;9.30;6.63;;;;;;;;;;16894218;29;20263;-87
2022/08/27 21:21:30;;;;;;;13.43;7.55;;;;;;;;;;16892851;29;20174;-86
2022/08/27 21:29:50;;;;;;;16.13;7.97;;;;;;;;;;16892476;29;20568;-87
2022/08/27 21:38:11;;;;;;;10.07;6.95;;;;;;;;;;16893038;29;20211;-87
2022/08/27 21:46:31;;;;;;;13.18;7.57;;;;;;;;;;16892317;29;20205;-86
2022/08/27 21:54:51;;;;;;;13.02;7.65;;;;;;;;;;16890705;28;20241;-88
2022/08/27 22:03:13;;;;;;;14.43;7.97;;;;;;;;;;16889789;28;20525;-88
2022/08/27 22:11:33;;;;;;;11.30;7.70;;;;;;;;;;16890314;29;20209;-88
2022/08/27 22:19:54;;;;;;;10.93;7.55;;;;;;;;;;16891094;29;20173;-89
2022/08/27 22:28:14;;;;;;;12.13;8.25;;;;;;;;;;16889643;28;20244;-88
2022/08/27 22:36:36;;;;;;;12.98;7.07;;;;;;;;;;16889858;29;20205;-88
2022/08/27 22:44:56;;;;;;;11.65;7.45;;;;;;;;;;16887890;29;20977;-88
2022/08/27 22:53:17;;;;;;;13.38;8.40;;;;;;;;;;16886430;29;20209;-89
2022/08/27 23:01:37;;;;;;;14.18;8.27;;;;;;;;;;16887509;28;20260;-88
2022/08/27 23:09:58;;;;;;;10.52;7.82;;;;;;;;;;16887085;29;20241;-89
2022/08/27 23:18:18;;;;;;;11.75;8.23;;;;;;;;;;16884204;28;20268;-89
2022/08/27 23:35:17;;;;;;;10.88;8.07;;;;;;;;;;16887784;29;20213;-87
2022/08/27 23:43:38;;;;;;;11.45;8.45;;;;;;;;;;16888939;28;20233;-87
2022/08/27 23:51:58;;;;;;;14.45;8.40;;;;;;;;;;16887326;28;20690;-87
